Latest Weather Observations for Port Augusta

IDS60801

Issued at 3:01 pm CST Sunday 5 July 2015 (issued every 30 minutes, with the page automatically refreshed every 10 minutes)

About weather observations | Map of weather stations | Latest weather observations for SA | Other Formats
Station Details ID: 018201 Name: PORT AUGUSTA AERO Lat: -32.51 Lon: 137.72 Height: 13.97 m
Data from the previous 72 hours. | See also: Recent months at Port Augusta
Date/Time
CST
Temp
°C
App
Temp
°C
Dew
Point
Rel
Hum
%
Delta-T
°C
Wind Press
QNH
hPa
Press
MSL
hPa
Rain
since 9 am
mm
Dir
 
Spd
km/h
Gust
km/h
Spd
kts
Gust
kts
05/03:00pm 17.5 12.8 6.1 47 5.6 N 20 28 11 15 1019.0 1018.9 0.0
05/02:30pm 17.0 12.2 5.6 47 5.5 N 20 28 11 15 1019.2 - 0.0
05/02:00pm 17.2 12.4 5.8 47 5.5 NNW 20 33 11 18 1019.5 - 0.0
05/01:30pm 17.1 12.5 5.7 47 5.5 NNW 19 28 10 15 1020.0 - 0.0
05/01:00pm 16.3 11.8 6.2 51 4.9 N 19 24 10 13 1020.3 - 0.0
05/12:30pm 15.7 11.6 6.2 53 4.6 N 17 24 9 13 1020.8 - 0.0
05/12:00pm 15.3 10.8 6.1 54 4.4 N 19 24 10 13 1021.1 1021.0 0.0
05/11:30am 14.9 10.5 6.5 57 4.1 N 19 24 10 13 1021.8 - 0.0
05/11:00am 13.9 9.2 6.0 59 3.8 N 20 26 11 14 1022.2 - 0.0
05/10:30am 13.2 8.7 5.9 61 3.4 NNW 19 24 10 13 1022.6 - 0.0
05/10:00am 12.0 7.5 6.1 67 2.8 NNW 19 24 10 13 1022.5 - 0.0
05/09:30am 10.0 7.1 6.3 78 1.7 NW 11 15 6 8 1022.6 - 0.0
05/09:00am 8.0 5.7 5.8 86 1.0 WNW 7 9 4 5 1022.5 1022.4 0.2
05/08:30am 5.7 4.5 4.8 94 0.4 CALM 0 0 0 0 1022.5 - 0.2
05/08:00am 3.0 1.3 1.8 92 0.5 CALM 0 4 0 2 1022.5 - 0.2
05/07:30am 2.9 1.2 1.9 93 0.4 CALM 0 0 0 0 1022.4 - 0.2
05/07:00am 2.7 0.2 1.7 93 0.4 W 4 6 2 3 1022.4 - 0.0
05/06:30am 2.7 -0.7 1.8 94 0.3 WSW 9 11 5 6 1022.2 - 0.0
05/06:00am 2.5 -0.9 1.6 94 0.3 W 9 11 5 6 1022.0 1021.9 0.0
05/05:30am 2.3 -1.2 1.4 94 0.3 W 9 11 5 6 1021.7 - 0.0
05/05:00am 2.9 -0.1 2.0 94 0.4 NW 7 9 4 5 1021.6 - 0.0
05/04:30am 3.7 0.8 2.8 94 0.4 W 7 9 4 5 1021.7 - 0.0
05/04:00am 3.2 -0.5 2.3 94 0.4 WSW 11 11 6 6 1021.8 - 0.0
05/03:30am 3.5 -0.2 2.6 94 0.4 WSW 11 13 6 7 1021.7 - 0.0
05/03:00am 3.7 0.5 2.8 94 0.4 WSW 9 11 5 6 1021.7 1021.6 0.0
05/02:30am 3.5 0.6 2.5 93 0.4 W 7 9 4 5 1021.7 - 0.0
05/02:00am 3.3 0.3 2.1 92 0.5 WNW 7 9 4 5 1021.8 - 0.0
05/01:30am 3.6 0.9 2.4 92 0.5 W 6 9 3 5 1021.9 - 0.0
05/01:00am 4.4 2.9 3.2 92 0.5 CALM 0 0 0 0 1022.1 - 0.0
05/12:30am 4.8 2.6 3.6 92 0.5 W 4 7 2 4 1022.5 - 0.0
05/12:00am 4.8 1.3 3.6 92 0.5 SW 11 13 6 7 1022.7 1022.6 0.0
 
Date/Time
CST
Temp
°C
App
Temp
°C
Dew
Point
Rel
Hum
%
Delta-T
°C
Wind Press
QNH
hPa
Press
MSL
hPa
Rain
since 9 am
mm
Dir
 
Spd
km/h
Gust
km/h
Spd
kts
Gust
kts
04/11:30pm 5.1 2.6 3.9 92 0.5 WSW 6 7 3 4 1022.8 - 0.0
04/11:00pm 5.3 3.2 4.0 91 0.5 SW 4 9 2 5 1022.7 - 0.0
04/10:30pm 5.4 2.4 4.1 91 0.6 WSW 9 11 5 6 1022.6 - 0.0
04/10:00pm 5.8 2.5 4.4 91 0.6 SW 11 13 6 7 1022.7 - 0.0
04/09:30pm 5.9 3.3 4.2 89 0.7 W 7 9 4 5 1022.8 - 0.0
04/09:00pm 7.0 4.6 5.2 88 0.8 WSW 7 9 4 5 1022.9 1022.8 0.0
04/08:30pm 7.7 5.3 5.3 85 1.1 WSW 7 9 4 5 1023.0 - 0.0
04/08:00pm 8.3 6.2 5.9 85 1.1 SW 6 7 3 4 1022.9 - 0.0
04/07:30pm 8.6 6.5 5.7 82 1.3 WNW 6 9 3 5 1022.7 - 0.0
04/07:00pm 10.9 8.8 6.5 74 2.1 N 7 9 4 5 1022.6 - 0.0
04/06:30pm 11.4 8.6 7.1 75 2.1 N 11 13 6 7 1022.5 - 0.0
04/06:00pm 12.3 10.0 7.4 72 2.4 NNE 9 11 5 6 1022.2 1022.1 0.0
04/05:30pm 13.8 12.0 8.0 68 2.9 N 7 7 4 4 1022.3 - 0.0
04/05:00pm 14.1 12.0 8.1 67 3.0 NNE 9 11 5 6 1022.2 - 0.0
04/04:30pm 15.0 13.3 7.5 61 3.7 SE 6 7 3 4 1022.3 - 0.0
04/04:00pm 15.7 13.6 6.7 55 4.4 SE 7 7 4 4 1022.3 - 0.0
04/03:30pm 16.0 13.7 5.9 51 4.9 E 7 9 4 5 1022.3 - 0.0
04/03:00pm 16.5 14.6 6.9 53 4.7 NNE 6 9 3 5 1022.3 1022.2 0.0
04/02:30pm 17.4 14.9 6.6 49 5.3 NNW 9 17 5 9 1022.4 - 0.0
04/02:00pm 17.1 14.7 6.9 51 5.1 NW 9 17 5 9 1022.6 - 0.0
04/01:30pm 16.5 13.4 7.4 55 4.5 N 13 19 7 10 1022.9 - 0.0
04/01:00pm 16.3 13.1 7.0 54 4.6 NNW 13 19 7 10 1023.5 - 0.0
04/12:30pm 16.2 13.6 7.9 58 4.2 N 11 17 6 9 1024.2 - 0.0
04/12:00pm 15.1 12.7 6.9 58 4.0 NW 9 13 5 7 1024.8 1024.7 0.0
04/11:30am 14.8 12.5 7.6 62 3.6 WNW 9 15 5 8 1025.2 - 0.0
04/11:00am 13.6 10.5 7.2 65 3.1 N 13 19 7 10 1025.3 - 0.0
04/10:30am 12.9 9.5 7.6 70 2.6 N 15 20 8 11 1025.6 - 0.0
04/10:00am 11.9 8.7 7.0 72 2.3 NNW 13 17 7 9 1025.8 - 0.0
04/09:30am 10.3 8.5 8.1 86 1.1 W 7 9 4 5 1025.9 - 0.0
04/09:00am 8.9 7.0 7.5 91 0.7 W 7 9 4 5 1025.8 1025.7 0.0
04/08:30am 8.1 5.8 7.3 95 0.4 WSW 9 13 5 7 1025.7 - 0.0
04/08:00am 5.6 3.3 4.9 95 0.3 WSW 6 9 3 5 1025.6 - 0.0
04/07:30am 5.5 3.2 4.8 95 0.3 WNW 6 7 3 4 1025.5 - 0.0
04/07:00am 5.7 3.2 5.0 95 0.3 WSW 7 9 4 5 1025.3 - 0.0
04/06:30am 5.2 2.8 4.5 95 0.3 W 6 7 3 4 1024.8 - 0.0
04/06:00am 5.1 2.5 4.4 95 0.3 WNW 7 7 4 4 1024.6 1024.5 0.0
04/05:30am 5.0 2.6 4.3 95 0.3 N 6 7 3 4 1024.4 - 0.0
04/05:00am 4.9 2.5 4.3 96 0.3 N 6 9 3 5 1024.3 - 0.0
04/04:30am 3.7 0.5 3.0 95 0.3 N 9 9 5 5 1024.4 - 0.0
04/04:00am 3.7 1.1 3.0 95 0.3 NW 6 7 3 4 1024.3 - 0.0
04/03:30am 3.3 0.4 2.4 94 0.4 NNW 7 9 4 5 1024.2 - 0.0
04/03:00am 4.1 1.0 3.4 95 0.3 WNW 9 9 5 5 1024.1 1024.0 0.0
04/02:30am 4.5 1.8 3.6 94 0.4 W 7 9 4 5 1024.1 - 0.0
04/02:00am 4.5 1.4 3.5 93 0.4 W 9 9 5 5 1024.4 - 0.0
04/01:30am 4.8 2.1 3.8 93 0.4 WSW 7 9 4 5 1024.5 - 0.0
04/01:00am 4.9 2.2 3.7 92 0.5 W 7 9 4 5 1024.6 - 0.0
04/12:30am 5.3 2.9 4.1 92 0.5 W 6 7 3 4 1024.7 - 0.0
04/12:00am 5.3 2.3 4.1 92 0.5 WSW 9 9 5 5 1025.1 1025.0 0.0
 
Date/Time
CST
Temp
°C
App
Temp
°C
Dew
Point
Rel
Hum
%
Delta-T
°C
Wind Press
QNH
hPa
Press
MSL
hPa
Rain
since 9 am
mm
Dir
 
Spd
km/h
Gust
km/h
Spd
kts
Gust
kts
03/11:30pm 5.5 2.5 4.3 92 0.5 WSW 9 11 5 6 1025.4 - 0.0
03/11:00pm 6.1 3.2 4.9 92 0.5 SW 9 9 5 5 1025.5 - 0.0
03/10:30pm 6.4 3.2 5.0 91 0.6 SW 11 11 6 6 1025.6 - 0.0
03/10:00pm 6.5 3.7 5.0 90 0.7 WSW 9 11 5 6 1025.8 - 0.0
03/09:30pm 7.4 4.7 5.5 88 0.8 WSW 9 9 5 5 1026.0 - 0.0
03/09:00pm 8.3 5.7 6.1 86 1.0 WSW 9 11 5 6 1026.1 1026.0 0.0
03/08:30pm 8.6 5.4 6.7 88 0.9 WSW 13 17 7 9 1026.1 - 0.0
03/08:00pm 8.6 6.4 6.4 86 1.0 S 7 7 4 4 1026.1 - 0.0
03/07:30pm 10.1 8.1 7.0 81 1.5 E 7 7 4 4 1025.9 - 0.0
03/07:00pm 10.1 6.9 7.0 81 1.5 NNE 13 13 7 7 1025.8 - 0.0
03/06:30pm 10.7 7.6 7.2 79 1.7 NNE 13 13 7 7 1025.8 - 0.0
03/06:00pm 12.0 9.4 7.9 76 2.0 NNE 11 13 6 7 1025.7 1025.6 0.0
03/05:30pm 13.2 10.4 8.7 74 2.3 N 13 15 7 8 1025.7 - 0.0
03/05:00pm 14.7 12.2 8.2 65 3.3 N 11 13 6 7 1025.9 - 0.0
03/04:30pm 16.5 13.2 8.2 58 4.2 N 15 19 8 10 1025.8 - 0.0
03/04:00pm 15.8 13.3 8.3 61 3.8 N 11 15 6 8 1026.0 - 0.0
03/03:30pm 16.0 13.9 8.2 60 3.9 NNW 9 13 5 7 1026.2 - 0.0
03/03:00pm 16.5 14.0 8.2 58 4.2 NNW 11 17 6 9 1026.1 1026.0 0.0
03/02:30pm 16.2 13.7 8.2 59 4.1 NNW 11 20 6 11 1026.3 - 0.0
03/02:00pm 16.6 13.7 8.3 58 4.2 NNW 13 20 7 11 1026.4 - 0.0
03/01:30pm 16.2 13.4 8.4 60 4.0 N 13 19 7 10 1026.8 - 0.0
03/01:00pm 15.9 13.9 8.6 62 3.7 NNW 9 13 5 7 1027.3 - 0.0
03/12:30pm 15.0 12.3 8.9 67 3.1 NW 13 17 7 9 1027.7 - 0.0
03/12:00pm 13.3 10.6 9.0 75 2.2 NW 13 19 7 10 1028.4 1028.3 0.0
03/11:30am 13.0 10.7 9.1 77 2.0 NW 11 15 6 8 1028.9 - 0.0
03/11:00am 11.4 9.8 8.8 84 1.3 NNW 7 11 4 6 1029.0 - 0.0
03/10:30am 10.6 9.2 9.4 92 0.6 N 7 11 4 6 1029.2 - 0.0
03/10:00am 10.0 8.5 9.2 95 0.4 N 7 13 4 7 1029.4 - 0.0
03/09:30am 9.5 9.3 9.0 97 0.2 CALM 0 0 0 0 1029.4 - 0.0
03/09:00am 7.6 7.0 7.2 97 0.2 CALM 0 0 0 0 1029.7 1029.6 0.2
03/08:30am 6.7 5.1 6.3 97 0.2 NNW 4 7 2 4 1029.6 - 0.2
03/08:00am 5.1 3.2 4.7 97 0.2 NNE 4 11 2 6 1029.6 - 0.2
03/07:30am 5.3 4.2 4.9 97 0.2 CALM 0 0 0 0 1029.1 - 0.2
03/07:00am 5.3 3.4 4.9 97 0.2 ENE 4 9 2 5 1028.9 - 0.2
03/06:30am 5.4 4.3 5.0 97 0.2 CALM 0 0 0 0 1028.7 - 0.2
03/06:00am 5.4 4.3 5.0 97 0.2 CALM 0 0 0 0 1028.5 1028.4 0.2
03/05:30am 5.6 4.5 5.2 97 0.2 CALM 0 6 0 3 1028.3 - 0.2
03/05:00am 5.1 2.6 4.7 97 0.2 SE 7 11 4 6 1028.1 - 0.2
03/04:40am 5.3 3.4 4.9 97 0.2 ESE 4 9 2 5 1028.2 - 0.2
03/04:33am 3.9 1.2 3.5 97 0.2 ESE 7 13 4 7 1028.2 - 0.2
03/04:30am 4.7 1.7 4.3 97 0.2 SE 9 13 5 7 1028.2 - 0.2
03/04:25am 4.6 2.0 4.2 97 0.2 ESE 7 11 4 6 1028.1 - 0.2
03/04:18am 3.7 1.1 3.1 96 0.2 SE 6 7 3 4 1028.2 - 0.2
03/04:17am 3.8 1.6 3.2 96 0.2 SE 4 7 2 4 1028.2 - 0.2
03/04:15am 3.9 1.7 3.3 96 0.2 SE 4 7 2 4 1028.2 - 0.2
03/04:14am 3.9 1.7 3.3 96 0.2 SE 4 7 2 4 1028.2 - 0.2
03/04:00am 4.3 1.8 3.7 96 0.2 SE 6 9 3 5 1028.2 - 0.2
03/03:59am 4.3 1.8 3.7 96 0.2 SE 6 7 3 4 1028.2 - 0.2
03/03:54am 4.4 1.9 3.8 96 0.2 SE 6 9 3 5 1028.3 - 0.2
03/03:48am 4.5 1.8 3.9 96 0.3 SSE 7 9 4 5 1028.4 - 0.2
03/03:30am 4.7 2.3 4.1 96 0.3 SSW 6 7 3 4 1028.6 - 0.2
03/03:00am 4.6 2.2 4.2 97 0.2 S 6 7 3 4 1028.6 1028.5 0.0
03/02:30am 4.8 1.8 4.2 96 0.3 S 9 11 5 6 1028.7 - 0.0
03/02:06am 5.3 2.4 4.7 96 0.3 SSW 9 11 5 6 1029.0 - 0.0
03/02:00am 5.3 2.4 4.7 96 0.3 SW 9 11 5 6 1029.1 - 0.0
03/01:57am 5.6 2.8 5.0 96 0.3 SW 9 11 5 6 1029.1 - 0.0
03/01:50am 6.5 4.4 5.9 96 0.3 WSW 6 9 3 5 1029.1 - 0.0
03/01:30am 7.9 6.1 7.3 96 0.3 W 6 7 3 4 1029.1 - 0.0
03/01:00am 7.8 6.8 7.2 96 0.3 W 2 9 1 5 1029.5 - 0.0
03/12:42am 6.8 5.2 6.2 96 0.3 W 4 7 2 4 1029.7 - 0.0
03/12:32am 5.9 3.5 5.3 96 0.3 WNW 7 7 4 4 1029.9 - 0.0
03/12:30am 5.9 3.5 5.3 96 0.3 WNW 7 7 4 4 1029.9 - 0.0
03/12:26am 5.6 3.1 5.0 96 0.3 WNW 7 9 4 5 1029.9 - 0.0
03/12:20am 5.3 2.8 4.6 95 0.3 NW 7 9 4 5 1029.9 - 0.0
03/12:08am 6.2 4.4 5.6 96 0.3 N 4 7 2 4 1030.0 - 0.0
03/12:00am 6.0 3.6 5.4 96 0.3 NNW 7 9 4 5 1030.1 1030.0 0.0
 
Date/Time
CST
Temp
°C
App
Temp
°C
Dew
Point
Rel
Hum
%
Delta-T
°C
Wind Press
QNH
hPa
Press
MSL
hPa
Rain
since 9 am
mm
Dir
 
Spd
km/h
Gust
km/h
Spd
kts
Gust
kts
02/11:30pm 7.3 5.8 6.7 96 0.3 NNW 4 7 2 4 1030.1 - 0.0
02/11:00pm 7.2 5.3 6.5 95 0.3 N 6 7 3 4 1030.1 - 0.0
02/10:48pm 6.7 5.7 5.8 94 0.4 CALM 0 7 0 4 1030.2 - 0.0
02/10:30pm 7.7 5.8 6.8 94 0.4 S 6 9 3 5 1030.3 - 0.0
02/10:10pm 7.9 5.9 7.1 95 0.4 SSW 7 9 4 5 1030.4 - 0.0
02/10:00pm 8.2 5.9 7.4 95 0.4 S 9 9 5 5 1030.4 - 0.0
02/09:30pm 8.2 6.2 7.1 93 0.5 ESE 7 9 4 5 1030.3 - 0.0
02/09:00pm 9.3 6.4 8.1 92 0.6 E 13 17 7 9 1029.9 1029.8 0.0
02/08:30pm 10.0 8.9 8.4 90 0.8 S 4 7 2 4 1029.8 - 0.0
02/08:00pm 10.7 8.3 8.6 87 1.0 SE 11 15 6 8 1029.8 - 0.0
02/07:30pm 11.2 8.9 8.9 86 1.1 S 11 15 6 8 1029.7 - 0.0
02/07:00pm 11.6 9.7 9.2 85 1.2 S 9 11 5 6 1029.4 - 0.0
02/06:30pm 11.1 8.7 8.8 86 1.1 S 11 13 6 7 1029.3 - 0.0
02/06:00pm 12.3 9.7 9.5 83 1.4 SSE 13 17 7 9 1029.1 1029.0 0.0
02/05:30pm 12.9 10.1 9.9 82 1.5 SE 15 19 8 10 1028.9 - 0.0
02/05:00pm 13.5 9.9 9.7 78 1.9 SSE 19 22 10 12 1028.7 - 0.0
02/04:30pm 14.6 10.4 9.6 72 2.6 SE 22 30 12 16 1028.6 - 0.0
02/04:00pm 15.1 11.2 9.5 69 2.9 SE 20 26 11 14 1028.6 - 0.0
02/03:30pm 15.6 11.7 9.3 66 3.2 SE 20 26 11 14 1028.7 - 0.0

Other Formats:

Comma delimited format used in spreadsheet applications
http://www.bom.gov.au/fwo/IDS60801/IDS60801.95666.axf

JavaScript Object Notation format (JSON) in row-major order
http://www.bom.gov.au/fwo/IDS60801/IDS60801.95666.json